Forest Springs, Missouri
Current Conditions -  °F | °C
As of 2:55 PM on Saturday 20 Dec 2014 (Local Time) from KIRK Reporting Station
Overcast Overcast  
Wind Chill: 33°   Ceiling: 1200
Heat Index: 38°   Visibility: 8mi
Dew Point: 35°   Wind: 7mph
Humidity: 89%   Direction: 180°S
Pressure: 30.15"   Gusts: NA
Location:  40.1258°N, 92.0041°W
Report Text: KIRK 202055Z AUTO 18006KT 8SM OVC012 03/02 A3015 RMK AO2 SLP221 T00330017 56015
Loading
Personal Weather Stations






























Interactive Weather Map New forecast layout! Learn more

10-Day Weather Forecast

Advertisements
Track Severe Weather on mobile